sensor_id;sensor_type;location;lat;lon;timestamp;P1;durP1;ratioP1;P2;durP2;ratioP2
19107;SDS011;9686;48.832;9.126;2023-02-15T00:01:18;29.43;;;17.80;;
19107;SDS011;9686;48.832;9.126;2023-02-15T00:03:43;29.00;;;18.20;;
19107;SDS011;9686;48.832;9.126;2023-02-15T00:06:08;26.20;;;17.33;;
19107;SDS011;9686;48.832;9.126;2023-02-15T00:08:34;25.37;;;16.17;;
19107;SDS011;9686;48.832;9.126;2023-02-15T00:11:06;29.67;;;17.57;;
19107;SDS011;9686;48.832;9.126;2023-02-15T00:13:33;26.23;;;17.03;;
19107;SDS011;9686;48.832;9.126;2023-02-15T00:16:03;29.47;;;18.20;;
19107;SDS011;9686;48.832;9.126;2023-02-15T00:18:29;28.40;;;17.27;;
19107;SDS011;9686;48.832;9.126;2023-02-15T00:20:55;32.03;;;18.13;;
19107;SDS011;9686;48.832;9.126;2023-02-15T00:23:20;30.67;;;17.50;;
19107;SDS011;9686;48.832;9.126;2023-02-15T00:25:45;27.27;;;17.00;;
19107;SDS011;9686;48.832;9.126;2023-02-15T00:28:11;27.53;;;16.93;;
19107;SDS011;9686;48.832;9.126;2023-02-15T00:30:36;26.93;;;16.43;;
19107;SDS011;9686;48.832;9.126;2023-02-15T00:33:01;30.00;;;17.70;;
19107;SDS011;9686;48.832;9.126;2023-02-15T00:35:27;25.60;;;15.10;;
19107;SDS011;9686;48.832;9.126;2023-02-15T00:37:52;27.53;;;16.20;;
19107;SDS011;9686;48.832;9.126;2023-02-15T00:40:17;23.97;;;15.70;;
19107;SDS011;9686;48.832;9.126;2023-02-15T00:42:43;31.53;;;17.50;;
19107;SDS011;9686;48.832;9.126;2023-02-15T00:45:08;27.60;;;16.50;;
19107;SDS011;9686;48.832;9.126;2023-02-15T00:47:34;24.97;;;16.27;;
19107;SDS011;9686;48.832;9.126;2023-02-15T00:49:59;24.53;;;15.50;;
19107;SDS011;9686;48.832;9.126;2023-02-15T00:52:24;26.50;;;17.67;;
19107;SDS011;9686;48.832;9.126;2023-02-15T00:54:50;25.30;;;16.97;;
19107;SDS011;9686;48.832;9.126;2023-02-15T00:57:15;26.13;;;17.50;;
19107;SDS011;9686;48.832;9.126;2023-02-15T00:59:40;28.40;;;17.40;;
19107;SDS011;9686;48.832;9.126;2023-02-15T01:02:05;27.77;;;16.60;;
19107;SDS011;9686;48.832;9.126;2023-02-15T01:04:31;30.33;;;17.47;;
19107;SDS011;9686;48.832;9.126;2023-02-15T01:06:56;26.23;;;17.20;;
19107;SDS011;9686;48.832;9.126;2023-02-15T01:09:21;28.83;;;17.07;;
19107;SDS011;9686;48.832;9.126;2023-02-15T01:11:47;28.40;;;17.23;;
19107;SDS011;9686;48.832;9.126;2023-02-15T01:14:12;28.80;;;17.10;;
19107;SDS011;9686;48.832;9.126;2023-02-15T01:16:38;29.10;;;16.40;;
19107;SDS011;9686;48.832;9.126;2023-02-15T01:19:03;26.87;;;16.03;;
19107;SDS011;9686;48.832;9.126;2023-02-15T01:21:29;30.77;;;17.30;;
19107;SDS011;9686;48.832;9.126;2023-02-15T01:23:54;29.20;;;17.70;;
19107;SDS011;9686;48.832;9.126;2023-02-15T01:26:19;27.27;;;17.07;;
19107;SDS011;9686;48.832;9.126;2023-02-15T01:28:45;29.20;;;17.70;;
19107;SDS011;9686;48.832;9.126;2023-02-15T01:31:12;28.47;;;17.43;;
19107;SDS011;9686;48.832;9.126;2023-02-15T01:33:42;29.57;;;16.20;;
19107;SDS011;9686;48.832;9.126;2023-02-15T01:36:07;25.37;;;16.07;;
19107;SDS011;9686;48.832;9.126;2023-02-15T01:38:33;28.67;;;17.57;;
19107;SDS011;9686;48.832;9.126;2023-02-15T01:40:59;26.10;;;16.33;;
19107;SDS011;9686;48.832;9.126;2023-02-15T01:43:44;27.47;;;16.23;;
19107;SDS011;9686;48.832;9.126;2023-02-15T01:46:12;25.87;;;16.57;;
19107;SDS011;9686;48.832;9.126;2023-02-15T01:48:41;25.90;;;16.47;;
19107;SDS011;9686;48.832;9.126;2023-02-15T01:51:10;24.30;;;15.80;;
19107;SDS011;9686;48.832;9.126;2023-02-15T01:53:39;28.60;;;16.17;;
19107;SDS011;9686;48.832;9.126;2023-02-15T01:56:23;28.37;;;16.63;;
19107;SDS011;9686;48.832;9.126;2023-02-15T01:58:53;26.53;;;16.33;;
19107;SDS011;9686;48.832;9.126;2023-02-15T02:01:20;26.07;;;15.90;;
19107;SDS011;9686;48.832;9.126;2023-02-15T02:04:00;24.10;;;16.27;;
19107;SDS011;9686;48.832;9.126;2023-02-15T02:06:33;23.57;;;15.37;;
19107;SDS011;9686;48.832;9.126;2023-02-15T02:09:00;23.57;;;14.60;;
19107;SDS011;9686;48.832;9.126;2023-02-15T02:11:26;23.17;;;14.63;;
19107;SDS011;9686;48.832;9.126;2023-02-15T02:13:52;25.37;;;16.07;;
19107;SDS011;9686;48.832;9.126;2023-02-15T02:19:10;26.67;;;16.20;;
19107;SDS011;9686;48.832;9.126;2023-02-15T02:30:17;27.80;;;17.07;;
19107;SDS011;9686;48.832;9.126;2023-02-15T02:33:11;34.10;;;17.03;;
19107;SDS011;9686;48.832;9.126;2023-02-15T02:39:22;21.83;;;13.97;;
19107;SDS011;9686;48.832;9.126;2023-02-15T02:42:01;22.63;;;14.43;;
19107;SDS011;9686;48.832;9.126;2023-02-15T02:44:53;23.73;;;14.47;;
19107;SDS011;9686;48.832;9.126;2023-02-15T02:48:07;25.10;;;14.90;;
19107;SDS011;9686;48.832;9.126;2023-02-15T02:50:22;25.03;;;14.43;;
19107;SDS011;9686;48.832;9.126;2023-02-15T02:52:51;26.33;;;14.90;;
19107;SDS011;9686;48.832;9.126;2023-02-15T02:55:20;24.33;;;14.27;;
19107;SDS011;9686;48.832;9.126;2023-02-15T02:57:54;24.53;;;14.87;;
19107;SDS011;9686;48.832;9.126;2023-02-15T03:00:49;24.70;;;15.33;;
19107;SDS011;9686;48.832;9.126;2023-02-15T03:03:30;27.37;;;14.20;;
19107;SDS011;9686;48.832;9.126;2023-02-15T03:06:06;30.33;;;14.73;;
19107;SDS011;9686;48.832;9.126;2023-02-15T03:08:43;26.90;;;14.53;;
19107;SDS011;9686;48.832;9.126;2023-02-15T03:11:13;27.07;;;14.30;;
19107;SDS011;9686;48.832;9.126;2023-02-15T03:13:39;26.97;;;15.07;;
19107;SDS011;9686;48.832;9.126;2023-02-15T03:16:05;30.07;;;15.17;;
19107;SDS011;9686;48.832;9.126;2023-02-15T03:18:52;36.80;;;15.10;;
19107;SDS011;9686;48.832;9.126;2023-02-15T03:21:25;26.63;;;15.40;;
19107;SDS011;9686;48.832;9.126;2023-02-15T03:24:15;24.87;;;13.33;;
19107;SDS011;9686;48.832;9.126;2023-02-15T03:26:45;24.83;;;13.73;;
19107;SDS011;9686;48.832;9.126;2023-02-15T03:29:13;27.37;;;13.97;;
19107;SDS011;9686;48.832;9.126;2023-02-15T03:31:42;26.63;;;14.73;;
19107;SDS011;9686;48.832;9.126;2023-02-15T03:34:11;35.47;;;16.17;;
19107;SDS011;9686;48.832;9.126;2023-02-15T03:36:54;29.57;;;15.43;;
19107;SDS011;9686;48.832;9.126;2023-02-15T03:39:33;30.77;;;15.50;;
19107;SDS011;9686;48.832;9.126;2023-02-15T03:45:00;30.20;;;14.83;;
19107;SDS011;9686;48.832;9.126;2023-02-15T03:47:31;33.60;;;15.33;;
19107;SDS011;9686;48.832;9.126;2023-02-15T03:50:18;41.13;;;14.93;;
19107;SDS011;9686;48.832;9.126;2023-02-15T03:53:06;35.77;;;15.23;;
19107;SDS011;9686;48.832;9.126;2023-02-15T03:55:34;28.20;;;15.13;;
19107;SDS011;9686;48.832;9.126;2023-02-15T03:58:00;29.80;;;15.37;;
19107;SDS011;9686;48.832;9.126;2023-02-15T04:00:47;32.40;;;14.50;;
19107;SDS011;9686;48.832;9.126;2023-02-15T04:03:45;34.33;;;14.33;;
19107;SDS011;9686;48.832;9.126;2023-02-15T04:06:19;37.73;;;15.20;;
19107;SDS011;9686;48.832;9.126;2023-02-15T04:08:44;32.77;;;14.80;;
19107;SDS011;9686;48.832;9.126;2023-02-15T04:11:28;30.63;;;14.87;;
19107;SDS011;9686;48.832;9.126;2023-02-15T04:13:53;33.93;;;15.67;;
19107;SDS011;9686;48.832;9.126;2023-02-15T04:16:24;35.90;;;15.73;;
19107;SDS011;9686;48.832;9.126;2023-02-15T04:18:50;33.80;;;14.47;;
19107;SDS011;9686;48.832;9.126;2023-02-15T04:21:34;32.43;;;14.77;;
19107;SDS011;9686;48.832;9.126;2023-02-15T04:24:18;25.30;;;14.60;;
19107;SDS011;9686;48.832;9.126;2023-02-15T04:27:03;36.87;;;15.27;;
19107;SDS011;9686;48.832;9.126;2023-02-15T04:29:30;23.20;;;13.00;;
19107;SDS011;9686;48.832;9.126;2023-02-15T04:31:57;35.23;;;16.30;;
19107;SDS011;9686;48.832;9.126;2023-02-15T04:34:24;25.43;;;15.20;;
19107;SDS011;9686;48.832;9.126;2023-02-15T04:36:50;32.63;;;16.23;;
19107;SDS011;9686;48.832;9.126;2023-02-15T04:39:15;27.70;;;15.07;;
19107;SDS011;9686;48.832;9.126;2023-02-15T04:41:42;40.30;;;15.93;;
19107;SDS011;9686;48.832;9.126;2023-02-15T04:44:07;35.67;;;15.53;;
19107;SDS011;9686;48.832;9.126;2023-02-15T04:46:33;33.37;;;14.67;;
19107;SDS011;9686;48.832;9.126;2023-02-15T04:48:58;30.20;;;15.67;;
19107;SDS011;9686;48.832;9.126;2023-02-15T04:51:24;38.37;;;16.57;;
19107;SDS011;9686;48.832;9.126;2023-02-15T04:53:49;29.30;;;15.80;;
19107;SDS011;9686;48.832;9.126;2023-02-15T04:56:17;32.20;;;16.27;;
19107;SDS011;9686;48.832;9.126;2023-02-15T04:58:43;37.40;;;16.77;;
19107;SDS011;9686;48.832;9.126;2023-02-15T05:01:08;40.60;;;15.63;;
19107;SDS011;9686;48.832;9.126;2023-02-15T05:03:34;31.50;;;15.33;;
19107;SDS011;9686;48.832;9.126;2023-02-15T05:05:59;31.90;;;15.40;;
19107;SDS011;9686;48.832;9.126;2023-02-15T05:08:25;33.07;;;15.33;;
19107;SDS011;9686;48.832;9.126;2023-02-15T05:10:50;43.63;;;16.60;;
19107;SDS011;9686;48.832;9.126;2023-02-15T05:13:15;40.53;;;16.23;;
19107;SDS011;9686;48.832;9.126;2023-02-15T05:15:41;38.27;;;16.23;;
19107;SDS011;9686;48.832;9.126;2023-02-15T05:18:06;30.53;;;15.43;;
19107;SDS011;9686;48.832;9.126;2023-02-15T05:20:32;37.70;;;16.83;;
19107;SDS011;9686;48.832;9.126;2023-02-15T05:22:58;33.03;;;15.23;;
19107;SDS011;9686;48.832;9.126;2023-02-15T05:25:23;31.03;;;15.47;;
19107;SDS011;9686;48.832;9.126;2023-02-15T05:28:08;27.83;;;15.33;;
19107;SDS011;9686;48.832;9.126;2023-02-15T05:30:44;27.20;;;15.50;;
19107;SDS011;9686;48.832;9.126;2023-02-15T05:33:09;38.50;;;16.13;;
19107;SDS011;9686;48.832;9.126;2023-02-15T05:35:35;33.67;;;15.70;;
19107;SDS011;9686;48.832;9.126;2023-02-15T05:38:00;24.93;;;14.23;;
19107;SDS011;9686;48.832;9.126;2023-02-15T05:40:25;23.70;;;14.73;;
19107;SDS011;9686;48.832;9.126;2023-02-15T05:42:51;29.80;;;14.87;;
19107;SDS011;9686;48.832;9.126;2023-02-15T05:45:16;32.80;;;16.27;;
19107;SDS011;9686;48.832;9.126;2023-02-15T05:47:42;28.33;;;14.60;;
19107;SDS011;9686;48.832;9.126;2023-02-15T05:50:07;30.37;;;17.37;;
19107;SDS011;9686;48.832;9.126;2023-02-15T05:52:33;30.10;;;15.23;;
19107;SDS011;9686;48.832;9.126;2023-02-15T05:54:59;29.03;;;15.80;;
19107;SDS011;9686;48.832;9.126;2023-02-15T05:57:25;39.50;;;16.17;;
19107;SDS011;9686;48.832;9.126;2023-02-15T05:59:51;24.73;;;15.40;;
19107;SDS011;9686;48.832;9.126;2023-02-15T06:02:17;32.83;;;16.80;;
19107;SDS011;9686;48.832;9.126;2023-02-15T06:04:42;40.97;;;16.07;;
19107;SDS011;9686;48.832;9.126;2023-02-15T06:07:07;25.50;;;15.00;;
19107;SDS011;9686;48.832;9.126;2023-02-15T06:09:33;26.40;;;14.97;;
19107;SDS011;9686;48.832;9.126;2023-02-15T06:11:58;30.50;;;15.57;;
19107;SDS011;9686;48.832;9.126;2023-02-15T06:14:23;32.10;;;14.97;;
19107;SDS011;9686;48.832;9.126;2023-02-15T06:16:49;24.60;;;15.13;;
19107;SDS011;9686;48.832;9.126;2023-02-15T06:19:14;26.07;;;14.97;;
19107;SDS011;9686;48.832;9.126;2023-02-15T06:21:39;39.20;;;15.37;;
19107;SDS011;9686;48.832;9.126;2023-02-15T06:24:05;43.53;;;14.50;;
19107;SDS011;9686;48.832;9.126;2023-02-15T06:26:30;52.10;;;14.70;;
19107;SDS011;9686;48.832;9.126;2023-02-15T06:28:55;38.13;;;14.87;;
19107;SDS011;9686;48.832;9.126;2023-02-15T06:31:20;51.77;;;15.17;;
19107;SDS011;9686;48.832;9.126;2023-02-15T06:33:46;44.50;;;16.63;;
19107;SDS011;9686;48.832;9.126;2023-02-15T06:36:11;35.70;;;14.90;;
19107;SDS011;9686;48.832;9.126;2023-02-15T06:38:37;33.30;;;16.67;;
19107;SDS011;9686;48.832;9.126;2023-02-15T06:41:02;39.43;;;17.57;;
19107;SDS011;9686;48.832;9.126;2023-02-15T06:43:28;30.63;;;16.13;;
19107;SDS011;9686;48.832;9.126;2023-02-15T06:45:53;45.53;;;14.77;;
19107;SDS011;9686;48.832;9.126;2023-02-15T06:48:18;50.07;;;16.50;;
19107;SDS011;9686;48.832;9.126;2023-02-15T06:50:44;33.30;;;15.40;;
19107;SDS011;9686;48.832;9.126;2023-02-15T06:53:09;44.57;;;15.70;;
19107;SDS011;9686;48.832;9.126;2023-02-15T06:55:34;40.57;;;16.20;;
19107;SDS011;9686;48.832;9.126;2023-02-15T06:58:00;29.83;;;15.03;;
19107;SDS011;9686;48.832;9.126;2023-02-15T07:00:25;41.70;;;15.07;;
19107;SDS011;9686;48.832;9.126;2023-02-15T07:02:54;43.03;;;15.13;;
19107;SDS011;9686;48.832;9.126;2023-02-15T07:05:21;27.97;;;15.17;;
19107;SDS011;9686;48.832;9.126;2023-02-15T07:07:47;35.40;;;16.07;;
19107;SDS011;9686;48.832;9.126;2023-02-15T07:10:12;34.20;;;14.87;;
19107;SDS011;9686;48.832;9.126;2023-02-15T07:12:37;28.77;;;15.83;;
19107;SDS011;9686;48.832;9.126;2023-02-15T07:15:10;32.07;;;14.73;;
19107;SDS011;9686;48.832;9.126;2023-02-15T07:17:37;29.60;;;14.43;;
19107;SDS011;9686;48.832;9.126;2023-02-15T07:20:04;27.50;;;14.63;;
19107;SDS011;9686;48.832;9.126;2023-02-15T07:22:32;37.23;;;16.10;;
19107;SDS011;9686;48.832;9.126;2023-02-15T07:24:59;42.90;;;17.50;;
19107;SDS011;9686;48.832;9.126;2023-02-15T07:27:24;39.13;;;20.93;;
19107;SDS011;9686;48.832;9.126;2023-02-15T07:29:49;31.27;;;18.37;;
19107;SDS011;9686;48.832;9.126;2023-02-15T07:32:14;32.97;;;17.40;;
19107;SDS011;9686;48.832;9.126;2023-02-15T07:34:40;53.03;;;17.40;;
19107;SDS011;9686;48.832;9.126;2023-02-15T07:37:05;34.17;;;18.37;;
19107;SDS011;9686;48.832;9.126;2023-02-15T07:39:31;34.93;;;17.27;;
19107;SDS011;9686;48.832;9.126;2023-02-15T07:41:56;33.03;;;17.77;;
19107;SDS011;9686;48.832;9.126;2023-02-15T07:44:21;31.10;;;19.10;;
19107;SDS011;9686;48.832;9.126;2023-02-15T07:46:47;35.47;;;17.97;;
19107;SDS011;9686;48.832;9.126;2023-02-15T07:49:12;28.43;;;16.80;;
19107;SDS011;9686;48.832;9.126;2023-02-15T07:51:37;42.90;;;17.47;;
19107;SDS011;9686;48.832;9.126;2023-02-15T07:54:03;45.00;;;17.43;;
19107;SDS011;9686;48.832;9.126;2023-02-15T07:56:28;35.90;;;17.53;;
19107;SDS011;9686;48.832;9.126;2023-02-15T07:58:53;43.00;;;18.07;;
19107;SDS011;9686;48.832;9.126;2023-02-15T08:01:25;31.70;;;17.30;;
19107;SDS011;9686;48.832;9.126;2023-02-15T08:03:52;32.20;;;17.00;;
19107;SDS011;9686;48.832;9.126;2023-02-15T08:06:20;35.37;;;18.43;;
19107;SDS011;9686;48.832;9.126;2023-02-15T08:08:47;45.57;;;20.10;;
19107;SDS011;9686;48.832;9.126;2023-02-15T08:16:27;24.90;;;15.97;;
19107;SDS011;9686;48.832;9.126;2023-02-15T08:19:03;29.47;;;16.20;;
19107;SDS011;9686;48.832;9.126;2023-02-15T08:21:31;36.43;;;18.23;;
19107;SDS011;9686;48.832;9.126;2023-02-15T08:23:58;29.30;;;16.60;;
19107;SDS011;9686;48.832;9.126;2023-02-15T08:26:24;27.37;;;16.07;;
19107;SDS011;9686;48.832;9.126;2023-02-15T08:28:50;28.50;;;15.43;;
19107;SDS011;9686;48.832;9.126;2023-02-15T08:31:16;29.43;;;15.40;;
19107;SDS011;9686;48.832;9.126;2023-02-15T08:33:42;25.90;;;14.67;;
19107;SDS011;9686;48.832;9.126;2023-02-15T08:36:11;28.37;;;15.50;;
19107;SDS011;9686;48.832;9.126;2023-02-15T08:38:37;25.90;;;15.87;;
19107;SDS011;9686;48.832;9.126;2023-02-15T08:43:41;28.73;;;17.27;;
19107;SDS011;9686;48.832;9.126;2023-02-15T08:46:07;21.83;;;14.73;;
19107;SDS011;9686;48.832;9.126;2023-02-15T08:48:33;27.13;;;14.83;;
19107;SDS011;9686;48.832;9.126;2023-02-15T08:51:03;25.33;;;14.00;;
19107;SDS011;9686;48.832;9.126;2023-02-15T08:53:29;27.47;;;14.33;;
19107;SDS011;9686;48.832;9.126;2023-02-15T08:55:56;21.07;;;14.10;;
19107;SDS011;9686;48.832;9.126;2023-02-15T08:58:22;20.03;;;13.70;;
19107;SDS011;9686;48.832;9.126;2023-02-15T09:00:47;24.83;;;14.50;;
19107;SDS011;9686;48.832;9.126;2023-02-15T09:03:13;26.27;;;14.27;;
19107;SDS011;9686;48.832;9.126;2023-02-15T09:05:38;23.83;;;14.60;;
19107;SDS011;9686;48.832;9.126;2023-02-15T09:08:03;28.47;;;16.10;;
19107;SDS011;9686;48.832;9.126;2023-02-15T09:10:29;27.50;;;16.03;;
19107;SDS011;9686;48.832;9.126;2023-02-15T09:12:54;27.93;;;15.47;;
19107;SDS011;9686;48.832;9.126;2023-02-15T09:15:19;28.33;;;15.30;;
19107;SDS011;9686;48.832;9.126;2023-02-15T09:17:45;26.67;;;16.17;;
19107;SDS011;9686;48.832;9.126;2023-02-15T09:20:10;31.00;;;15.43;;
19107;SDS011;9686;48.832;9.126;2023-02-15T09:22:35;28.60;;;16.33;;
19107;SDS011;9686;48.832;9.126;2023-02-15T09:25:01;24.77;;;16.07;;
19107;SDS011;9686;48.832;9.126;2023-02-15T09:27:26;25.93;;;17.03;;
19107;SDS011;9686;48.832;9.126;2023-02-15T09:29:51;35.43;;;18.10;;
19107;SDS011;9686;48.832;9.126;2023-02-15T09:32:17;26.77;;;16.63;;
19107;SDS011;9686;48.832;9.126;2023-02-15T09:34:42;33.40;;;18.00;;
19107;SDS011;9686;48.832;9.126;2023-02-15T09:37:07;30.50;;;16.80;;
19107;SDS011;9686;48.832;9.126;2023-02-15T09:39:33;30.17;;;18.20;;
19107;SDS011;9686;48.832;9.126;2023-02-15T09:45:36;30.27;;;18.33;;
19107;SDS011;9686;48.832;9.126;2023-02-15T09:48:39;32.17;;;18.40;;
19107;SDS011;9686;48.832;9.126;2023-02-15T09:53:55;30.87;;;19.57;;
19107;SDS011;9686;48.832;9.126;2023-02-15T09:56:34;28.17;;;18.00;;
19107;SDS011;9686;48.832;9.126;2023-02-15T10:12:47;32.50;;;20.00;;
19107;SDS011;9686;48.832;9.126;2023-02-15T10:21:39;30.27;;;19.87;;
19107;SDS011;9686;48.832;9.126;2023-02-15T10:24:22;30.03;;;19.30;;
19107;SDS011;9686;48.832;9.126;2023-02-15T10:26:49;29.93;;;19.27;;
19107;SDS011;9686;48.832;9.126;2023-02-15T10:37:47;29.07;;;19.17;;
19107;SDS011;9686;48.832;9.126;2023-02-15T10:40:43;32.30;;;19.53;;
19107;SDS011;9686;48.832;9.126;2023-02-15T10:43:25;33.23;;;20.47;;
19107;SDS011;9686;48.832;9.126;2023-02-15T10:51:27;26.00;;;19.13;;
19107;SDS011;9686;48.832;9.126;2023-02-15T10:54:05;32.03;;;19.87;;
19107;SDS011;9686;48.832;9.126;2023-02-15T11:07:49;33.83;;;20.73;;
19107;SDS011;9686;48.832;9.126;2023-02-15T11:13:09;32.43;;;20.30;;
19107;SDS011;9686;48.832;9.126;2023-02-15T11:16:27;35.40;;;20.03;;
19107;SDS011;9686;48.832;9.126;2023-02-15T11:18:56;30.80;;;20.17;;
19107;SDS011;9686;48.832;9.126;2023-02-15T11:21:26;33.00;;;20.10;;
19107;SDS011;9686;48.832;9.126;2023-02-15T11:23:57;36.93;;;21.03;;
19107;SDS011;9686;48.832;9.126;2023-02-15T11:26:33;30.57;;;19.67;;
19107;SDS011;9686;48.832;9.126;2023-02-15T11:29:07;27.97;;;19.50;;
19107;SDS011;9686;48.832;9.126;2023-02-15T11:31:43;25.87;;;18.87;;
19107;SDS011;9686;48.832;9.126;2023-02-15T11:34:20;33.83;;;19.00;;
19107;SDS011;9686;48.832;9.126;2023-02-15T11:36:54;30.97;;;20.20;;
19107;SDS011;9686;48.832;9.126;2023-02-15T11:39:23;29.47;;;19.33;;
19107;SDS011;9686;48.832;9.126;2023-02-15T11:41:54;26.43;;;18.77;;
19107;SDS011;9686;48.832;9.126;2023-02-15T11:44:28;30.40;;;18.87;;
19107;SDS011;9686;48.832;9.126;2023-02-15T11:46:57;26.70;;;19.27;;
19107;SDS011;9686;48.832;9.126;2023-02-15T11:51:55;29.63;;;19.77;;
19107;SDS011;9686;48.832;9.126;2023-02-15T11:54:23;29.47;;;20.17;;
19107;SDS011;9686;48.832;9.126;2023-02-15T11:56:55;28.20;;;19.80;;
19107;SDS011;9686;48.832;9.126;2023-02-15T11:59:31;26.10;;;19.17;;
19107;SDS011;9686;48.832;9.126;2023-02-15T12:02:01;26.07;;;19.73;;
19107;SDS011;9686;48.832;9.126;2023-02-15T12:04:31;27.47;;;18.80;;
19107;SDS011;9686;48.832;9.126;2023-02-15T12:07:09;25.83;;;17.33;;
19107;SDS011;9686;48.832;9.126;2023-02-15T12:09:48;23.57;;;18.00;;
19107;SDS011;9686;48.832;9.126;2023-02-15T12:12:28;21.30;;;17.43;;
19107;SDS011;9686;48.832;9.126;2023-02-15T12:14:59;25.30;;;17.00;;
19107;SDS011;9686;48.832;9.126;2023-02-15T12:17:27;23.60;;;16.97;;
19107;SDS011;9686;48.832;9.126;2023-02-15T12:19:55;22.23;;;16.67;;
19107;SDS011;9686;48.832;9.126;2023-02-15T12:22:24;23.90;;;16.77;;
19107;SDS011;9686;48.832;9.126;2023-02-15T12:24:53;22.77;;;17.53;;
19107;SDS011;9686;48.832;9.126;2023-02-15T12:27:26;21.13;;;16.77;;
19107;SDS011;9686;48.832;9.126;2023-02-15T12:30:04;22.67;;;17.90;;
19107;SDS011;9686;48.832;9.126;2023-02-15T12:32:37;20.07;;;15.97;;
19107;SDS011;9686;48.832;9.126;2023-02-15T12:35:32;22.80;;;18.43;;
19107;SDS011;9686;48.832;9.126;2023-02-15T12:38:04;23.03;;;18.17;;
19107;SDS011;9686;48.832;9.126;2023-02-15T12:40:56;22.00;;;17.47;;
19107;SDS011;9686;48.832;9.126;2023-02-15T12:43:41;23.50;;;17.73;;
19107;SDS011;9686;48.832;9.126;2023-02-15T12:48:46;22.97;;;17.27;;
19107;SDS011;9686;48.832;9.126;2023-02-15T12:51:14;24.97;;;18.20;;
19107;SDS011;9686;48.832;9.126;2023-02-15T12:53:40;23.90;;;18.00;;
19107;SDS011;9686;48.832;9.126;2023-02-15T12:56:06;23.87;;;18.30;;
19107;SDS011;9686;48.832;9.126;2023-02-15T12:58:40;25.20;;;18.13;;
19107;SDS011;9686;48.832;9.126;2023-02-15T13:01:16;24.27;;;18.13;;
19107;SDS011;9686;48.832;9.126;2023-02-15T13:06:25;25.50;;;18.63;;
19107;SDS011;9686;48.832;9.126;2023-02-15T13:08:52;26.97;;;18.20;;
19107;SDS011;9686;48.832;9.126;2023-02-15T13:11:29;26.40;;;19.53;;
19107;SDS011;9686;48.832;9.126;2023-02-15T13:14:22;24.80;;;18.20;;
19107;SDS011;9686;48.832;9.126;2023-02-15T13:16:58;24.83;;;18.40;;
19107;SDS011;9686;48.832;9.126;2023-02-15T13:21:59;26.40;;;19.30;;
19107;SDS011;9686;48.832;9.126;2023-02-15T13:24:28;31.27;;;18.83;;
19107;SDS011;9686;48.832;9.126;2023-02-15T13:26:59;24.23;;;18.40;;
19107;SDS011;9686;48.832;9.126;2023-02-15T13:29:27;26.97;;;20.00;;
19107;SDS011;9686;48.832;9.126;2023-02-15T13:31:55;27.57;;;19.97;;
19107;SDS011;9686;48.832;9.126;2023-02-15T13:34:28;29.77;;;20.90;;
19107;SDS011;9686;48.832;9.126;2023-02-15T13:37:01;29.83;;;20.57;;
19107;SDS011;9686;48.832;9.126;2023-02-15T13:42:31;27.07;;;19.63;;
19107;SDS011;9686;48.832;9.126;2023-02-15T13:45:16;27.73;;;20.57;;
19107;SDS011;9686;48.832;9.126;2023-02-15T13:48:00;28.77;;;19.03;;
19107;SDS011;9686;48.832;9.126;2023-02-15T13:55:46;23.10;;;18.87;;
19107;SDS011;9686;48.832;9.126;2023-02-15T13:58:26;29.67;;;20.17;;
19107;SDS011;9686;48.832;9.126;2023-02-15T14:01:30;27.67;;;19.50;;
19107;SDS011;9686;48.832;9.126;2023-02-15T14:15:13;23.50;;;18.03;;
19107;SDS011;9686;48.832;9.126;2023-02-15T14:17:54;22.10;;;17.03;;
19107;SDS011;9686;48.832;9.126;2023-02-15T14:20:37;27.70;;;19.00;;
19107;SDS011;9686;48.832;9.126;2023-02-15T14:26:22;27.57;;;18.77;;
19107;SDS011;9686;48.832;9.126;2023-02-15T14:29:16;26.20;;;18.87;;
19107;SDS011;9686;48.832;9.126;2023-02-15T14:31:59;20.37;;;16.17;;
19107;SDS011;9686;48.832;9.126;2023-02-15T14:37:09;24.73;;;17.40;;
19107;SDS011;9686;48.832;9.126;2023-02-15T14:39:50;27.13;;;17.20;;
19107;SDS011;9686;48.832;9.126;2023-02-15T14:45:24;23.27;;;17.97;;
19107;SDS011;9686;48.832;9.126;2023-02-15T14:48:09;23.83;;;17.50;;
19107;SDS011;9686;48.832;9.126;2023-02-15T14:50:44;21.97;;;16.13;;
19107;SDS011;9686;48.832;9.126;2023-02-15T14:53:25;23.03;;;15.90;;
19107;SDS011;9686;48.832;9.126;2023-02-15T14:58:38;25.13;;;18.27;;
19107;SDS011;9686;48.832;9.126;2023-02-15T15:01:29;24.30;;;17.57;;
19107;SDS011;9686;48.832;9.126;2023-02-15T15:03:58;24.13;;;17.23;;
19107;SDS011;9686;48.832;9.126;2023-02-15T15:06:38;26.50;;;17.30;;
19107;SDS011;9686;48.832;9.126;2023-02-15T15:09:10;24.33;;;17.73;;
19107;SDS011;9686;48.832;9.126;2023-02-15T15:11:37;22.43;;;16.73;;
19107;SDS011;9686;48.832;9.126;2023-02-15T15:14:06;21.90;;;16.50;;
19107;SDS011;9686;48.832;9.126;2023-02-15T15:19:02;18.87;;;15.60;;
19107;SDS011;9686;48.832;9.126;2023-02-15T15:35:37;22.33;;;15.27;;
19107;SDS011;9686;48.832;9.126;2023-02-15T15:47:57;20.37;;;14.90;;
19107;SDS011;9686;48.832;9.126;2023-02-15T15:50:40;21.07;;;15.90;;
19107;SDS011;9686;48.832;9.126;2023-02-15T15:53:10;28.23;;;17.43;;
19107;SDS011;9686;48.832;9.126;2023-02-15T15:55:45;26.87;;;16.97;;
19107;SDS011;9686;48.832;9.126;2023-02-15T15:58:12;22.40;;;18.13;;
19107;SDS011;9686;48.832;9.126;2023-02-15T16:00:42;25.43;;;17.83;;
19107;SDS011;9686;48.832;9.126;2023-02-15T16:03:21;23.60;;;17.63;;
19107;SDS011;9686;48.832;9.126;2023-02-15T16:05:48;24.53;;;18.33;;
19107;SDS011;9686;48.832;9.126;2023-02-15T16:11:24;23.57;;;18.33;;
19107;SDS011;9686;48.832;9.126;2023-02-15T16:13:54;28.33;;;17.53;;
19107;SDS011;9686;48.832;9.126;2023-02-15T16:16:21;22.77;;;17.27;;
19107;SDS011;9686;48.832;9.126;2023-02-15T16:18:49;25.03;;;17.73;;
19107;SDS011;9686;48.832;9.126;2023-02-15T16:21:19;24.53;;;17.57;;
19107;SDS011;9686;48.832;9.126;2023-02-15T16:24:06;25.13;;;17.70;;
19107;SDS011;9686;48.832;9.126;2023-02-15T16:26:44;24.93;;;17.47;;
19107;SDS011;9686;48.832;9.126;2023-02-15T16:29:28;25.63;;;17.83;;
19107;SDS011;9686;48.832;9.126;2023-02-15T16:34:55;24.97;;;17.53;;
19107;SDS011;9686;48.832;9.126;2023-02-15T16:37:26;22.37;;;17.10;;
19107;SDS011;9686;48.832;9.126;2023-02-15T16:39:54;22.80;;;17.40;;
19107;SDS011;9686;48.832;9.126;2023-02-15T16:42:20;23.10;;;17.90;;
19107;SDS011;9686;48.832;9.126;2023-02-15T16:44:48;23.73;;;16.27;;
19107;SDS011;9686;48.832;9.126;2023-02-15T16:47:31;25.83;;;17.07;;
19107;SDS011;9686;48.832;9.126;2023-02-15T16:50:02;24.43;;;18.70;;
19107;SDS011;9686;48.832;9.126;2023-02-15T16:52:29;30.33;;;19.77;;
19107;SDS011;9686;48.832;9.126;2023-02-15T16:54:58;24.10;;;16.87;;
19107;SDS011;9686;48.832;9.126;2023-02-15T16:57:27;27.25;;;21.38;;
19107;SDS011;9686;48.832;9.126;2023-02-15T16:59:57;23.40;;;19.23;;
19107;SDS011;9686;48.832;9.126;2023-02-15T17:02:30;25.93;;;18.90;;
19107;SDS011;9686;48.832;9.126;2023-02-15T17:07:38;24.07;;;19.27;;
19107;SDS011;9686;48.832;9.126;2023-02-15T17:10:16;24.23;;;18.30;;
19107;SDS011;9686;48.832;9.126;2023-02-15T17:12:52;24.97;;;18.67;;
19107;SDS011;9686;48.832;9.126;2023-02-15T17:15:41;21.97;;;16.70;;
19107;SDS011;9686;48.832;9.126;2023-02-15T17:20:40;26.87;;;18.43;;
19107;SDS011;9686;48.832;9.126;2023-02-15T17:26:01;25.83;;;19.17;;
19107;SDS011;9686;48.832;9.126;2023-02-15T17:28:46;29.63;;;18.57;;
19107;SDS011;9686;48.832;9.126;2023-02-15T17:31:16;25.07;;;18.83;;
19107;SDS011;9686;48.832;9.126;2023-02-15T17:33:43;28.47;;;18.83;;
19107;SDS011;9686;48.832;9.126;2023-02-15T17:38:42;27.90;;;19.10;;